sensor_id;sensor_type;location;lat;lon;timestamp;pressure;altitude;pressure_sealevel;temperature;humidity
34073;BME280;20346;52.702;16.886;2022-12-07T00:02:36;100327.63;;;2.92;90.29
34073;BME280;20346;52.702;16.886;2022-12-07T00:05:22;100325.52;;;2.93;90.34
34073;BME280;20346;52.702;16.886;2022-12-07T00:08:07;100329.78;;;2.94;90.31
34073;BME280;20346;52.702;16.886;2022-12-07T00:10:52;100329.34;;;2.93;90.28
34073;BME280;20346;52.702;16.886;2022-12-07T00:13:37;100330.20;;;2.94;90.34
34073;BME280;20346;52.702;16.886;2022-12-07T00:16:25;100330.63;;;2.95;90.35
34073;BME280;20346;52.702;16.886;2022-12-07T00:19:12;100334.90;;;2.96;90.32
34073;BME280;20346;52.702;16.886;2022-12-07T00:21:57;100323.41;;;2.96;90.33
34073;BME280;20346;52.702;16.886;2022-12-07T00:24:43;100327.67;;;2.97;90.34
34073;BME280;20346;52.702;16.886;2022-12-07T00:27:28;100326.83;;;2.98;90.34
34073;BME280;20346;52.702;16.886;2022-12-07T00:30:13;100325.16;;;3.00;90.36
34073;BME280;20346;52.702;16.886;2022-12-07T00:32:59;100317.05;;;2.99;90.34
34073;BME280;20346;52.702;16.886;2022-12-07T00:35:44;100316.20;;;2.98;90.37
34073;BME280;20346;52.702;16.886;2022-12-07T00:38:31;100314.94;;;3.00;90.40
34073;BME280;20346;52.702;16.886;2022-12-07T00:41:20;100315.39;;;3.03;90.41
34073;BME280;20346;52.702;16.886;2022-12-07T00:44:05;100315.83;;;3.04;90.41
34073;BME280;20346;52.702;16.886;2022-12-07T00:46:50;100314.14;;;3.06;90.40
34073;BME280;20346;52.702;16.886;2022-12-07T00:49:35;100308.61;;;3.06;90.40
34073;BME280;20346;52.702;16.886;2022-12-07T00:52:20;100307.34;;;3.08;90.39
34073;BME280;20346;52.702;16.886;2022-12-07T00:55:06;100307.78;;;3.09;90.40
34073;BME280;20346;52.702;16.886;2022-12-07T00:57:51;100306.52;;;3.10;90.41
34073;BME280;20346;52.702;16.886;2022-12-07T01:00:38;100304.80;;;3.12;90.40
34073;BME280;20346;52.702;16.886;2022-12-07T01:03:24;100300.99;;;3.11;90.38
34073;BME280;20346;52.702;16.886;2022-12-07T01:06:09;100304.39;;;3.13;90.41
34073;BME280;20346;52.702;16.886;2022-12-07T01:08:54;100306.52;;;3.13;90.36
34073;BME280;20346;52.702;16.886;2022-12-07T01:11:39;100303.53;;;3.12;90.38
34073;BME280;20346;52.702;16.886;2022-12-07T01:14:24;100305.68;;;3.11;90.38
34073;BME280;20346;52.702;16.886;2022-12-07T01:17:09;100307.80;;;3.13;90.37
34073;BME280;20346;52.702;16.886;2022-12-07T01:19:54;100296.73;;;3.11;90.32
34073;BME280;20346;52.702;16.886;2022-12-07T01:22:40;100295.45;;;3.10;90.32
34073;BME280;20346;52.702;16.886;2022-12-07T01:25:25;100300.99;;;3.11;90.33
34073;BME280;20346;52.702;16.886;2022-12-07T01:28:10;100298.44;;;3.11;90.34
34073;BME280;20346;52.702;16.886;2022-12-07T01:31:00;100291.21;;;3.12;90.33
34073;BME280;20346;52.702;16.886;2022-12-07T01:33:50;100292.05;;;3.11;90.27
34073;BME280;20346;52.702;16.886;2022-12-07T01:36:37;100293.33;;;3.11;90.33
34073;BME280;20346;52.702;16.886;2022-12-07T01:39:22;100288.22;;;3.11;90.30
34073;BME280;20346;52.702;16.886;2022-12-07T01:42:11;100292.89;;;3.10;90.27
34073;BME280;20346;52.702;16.886;2022-12-07T01:45:37;100292.03;;;3.09;90.32
34073;BME280;20346;52.702;16.886;2022-12-07T01:48:34;100294.19;;;3.11;90.32
34073;BME280;20346;52.702;16.886;2022-12-07T01:51:20;100297.14;;;3.09;90.28
34073;BME280;20346;52.702;16.886;2022-12-07T01:54:06;100294.17;;;3.10;90.32
34073;BME280;20346;52.702;16.886;2022-12-07T01:56:53;100291.20;;;3.10;90.33
34073;BME280;20346;52.702;16.886;2022-12-07T01:59:39;100289.50;;;3.11;90.33
34073;BME280;20346;52.702;16.886;2022-12-07T02:02:33;100289.48;;;3.12;90.35
34073;BME280;20346;52.702;16.886;2022-12-07T02:05:19;100283.12;;;3.15;90.37
34073;BME280;20346;52.702;16.886;2022-12-07T02:08:04;100285.23;;;3.14;90.29
34073;BME280;20346;52.702;16.886;2022-12-07T02:10:49;100278.00;;;3.14;90.29
34073;BME280;20346;52.702;16.886;2022-12-07T02:13:37;100275.44;;;3.14;90.28
34073;BME280;20346;52.702;16.886;2022-12-07T02:16:44;100268.22;;;3.15;90.33
34073;BME280;20346;52.702;16.886;2022-12-07T02:29:26;100254.19;;;3.18;90.29
34073;BME280;20346;52.702;16.886;2022-12-07T02:32:28;100259.28;;;3.16;90.25
34073;BME280;20346;52.702;16.886;2022-12-07T02:38:30;100261.37;;;3.12;90.20
34073;BME280;20346;52.702;16.886;2022-12-07T02:41:36;100263.52;;;3.10;90.17
34073;BME280;20346;52.702;16.886;2022-12-07T02:44:23;100260.50;;;3.06;90.16
34073;BME280;20346;52.702;16.886;2022-12-07T02:47:12;100267.72;;;3.03;90.15
34073;BME280;20346;52.702;16.886;2022-12-07T02:49:58;100268.53;;;2.99;90.11
34073;BME280;20346;52.702;16.886;2022-12-07T02:52:44;100260.83;;;2.94;90.08
34073;BME280;20346;52.702;16.886;2022-12-07T02:55:34;100258.26;;;2.93;90.11
34073;BME280;20346;52.702;16.886;2022-12-07T02:58:36;100259.05;;;2.87;89.99
34073;BME280;20346;52.702;16.886;2022-12-07T03:08:16;100255.52;;;2.73;89.96
34073;BME280;20346;52.702;16.886;2022-12-07T03:11:08;100260.54;;;2.65;89.91
34073;BME280;20346;52.702;16.886;2022-12-07T03:14:05;100269.84;;;2.60;89.90
34073;BME280;20346;52.702;16.886;2022-12-07T03:17:15;100266.84;;;2.55;89.91
34073;BME280;20346;52.702;16.886;2022-12-07T03:20:04;100266.78;;;2.50;89.89
34073;BME280;20346;52.702;16.886;2022-12-07T03:22:53;100271.89;;;2.50;89.99
34073;BME280;20346;52.702;16.886;2022-12-07T03:25:41;100277.37;;;2.47;89.95
34073;BME280;20346;52.702;16.886;2022-12-07T03:28:31;100276.50;;;2.45;89.92
34073;BME280;20346;52.702;16.886;2022-12-07T03:31:26;100273.06;;;2.41;89.84
34073;BME280;20346;52.702;16.886;2022-12-07T03:34:30;100273.05;;;2.40;89.87
34073;BME280;20346;52.702;16.886;2022-12-07T03:37:23;100267.92;;;2.38;89.87
34073;BME280;20346;52.702;16.886;2022-12-07T03:40:15;100265.77;;;2.36;89.88
34073;BME280;20346;52.702;16.886;2022-12-07T03:43:04;100261.53;;;2.37;89.86
34073;BME280;20346;52.702;16.886;2022-12-07T03:46:19;100258.95;;;2.35;89.85
34073;BME280;20346;52.702;16.886;2022-12-07T03:49:27;100255.13;;;2.35;89.88
34073;BME280;20346;52.702;16.886;2022-12-07T03:52:24;100250.88;;;2.36;89.84
34073;BME280;20346;52.702;16.886;2022-12-07T03:55:20;100246.22;;;2.37;89.86
34073;BME280;20346;52.702;16.886;2022-12-07T03:58:14;100241.55;;;2.38;89.89
34073;BME280;20346;52.702;16.886;2022-12-07T04:01:03;100241.13;;;2.38;89.88
34073;BME280;20346;52.702;16.886;2022-12-07T04:03:48;100236.89;;;2.39;89.88
34073;BME280;20346;52.702;16.886;2022-12-07T04:06:33;100232.64;;;2.39;89.83
34073;BME280;20346;52.702;16.886;2022-12-07T04:09:18;100230.92;;;2.38;89.81
34073;BME280;20346;52.702;16.886;2022-12-07T04:12:04;100221.59;;;2.40;89.84
34073;BME280;20346;52.702;16.886;2022-12-07T04:14:49;100218.64;;;2.42;89.88
34073;BME280;20346;52.702;16.886;2022-12-07T04:17:34;100222.48;;;2.44;89.85
34073;BME280;20346;52.702;16.886;2022-12-07T04:20:19;100220.38;;;2.46;89.87
34073;BME280;20346;52.702;16.886;2022-12-07T04:23:03;100228.05;;;2.48;89.85
34073;BME280;20346;52.702;16.886;2022-12-07T04:25:48;100240.39;;;2.48;89.83
34073;BME280;20346;52.702;16.886;2022-12-07T04:28:33;100236.16;;;2.50;89.86
34073;BME280;20346;52.702;16.886;2022-12-07T04:31:18;100236.13;;;2.47;89.81
34073;BME280;20346;52.702;16.886;2022-12-07T04:34:04;100232.73;;;2.48;89.84
34073;BME280;20346;52.702;16.886;2022-12-07T04:36:49;100230.19;;;2.48;89.83
34073;BME280;20346;52.702;16.886;2022-12-07T04:39:35;100226.80;;;2.49;89.89
34073;BME280;20346;52.702;16.886;2022-12-07T04:42:19;100217.88;;;2.51;89.89
34073;BME280;20346;52.702;16.886;2022-12-07T04:45:05;100217.46;;;2.51;89.87
34073;BME280;20346;52.702;16.886;2022-12-07T04:47:50;100213.65;;;2.53;89.88
34073;BME280;20346;52.702;16.886;2022-12-07T04:50:35;100216.63;;;2.54;89.85
34073;BME280;20346;52.702;16.886;2022-12-07T04:53:22;100214.52;;;2.55;89.86
34073;BME280;20346;52.702;16.886;2022-12-07T04:56:06;100205.16;;;2.55;89.89
34073;BME280;20346;52.702;16.886;2022-12-07T04:58:53;100211.16;;;2.59;89.90
34073;BME280;20346;52.702;16.886;2022-12-07T05:01:37;100208.19;;;2.59;89.90
34073;BME280;20346;52.702;16.886;2022-12-07T05:04:23;100205.61;;;2.61;89.87
34073;BME280;20346;52.702;16.886;2022-12-07T05:07:08;100204.76;;;2.60;89.84
34073;BME280;20346;52.702;16.886;2022-12-07T05:09:53;100203.06;;;2.61;89.84
34073;BME280;20346;52.702;16.886;2022-12-07T05:12:38;100201.78;;;2.61;89.86
34073;BME280;20346;52.702;16.886;2022-12-07T05:15:23;100200.95;;;2.62;89.86
34073;BME280;20346;52.702;16.886;2022-12-07T05:18:08;100199.25;;;2.62;89.85
34073;BME280;20346;52.702;16.886;2022-12-07T05:20:53;100195.86;;;2.63;89.88
34073;BME280;20346;52.702;16.886;2022-12-07T05:23:37;100195.86;;;2.63;89.85
34073;BME280;20346;52.702;16.886;2022-12-07T05:26:22;100193.75;;;2.66;89.87
34073;BME280;20346;52.702;16.886;2022-12-07T05:29:11;100197.16;;;2.66;89.87
34073;BME280;20346;52.702;16.886;2022-12-07T05:31:57;100196.30;;;2.66;89.85
34073;BME280;20346;52.702;16.886;2022-12-07T05:34:42;100196.73;;;2.65;89.86
34073;BME280;20346;52.702;16.886;2022-12-07T05:37:27;100200.13;;;2.66;89.86
34073;BME280;20346;52.702;16.886;2022-12-07T05:40:13;100193.75;;;2.66;89.82
34073;BME280;20346;52.702;16.886;2022-12-07T05:42:58;100188.65;;;2.66;89.85
34073;BME280;20346;52.702;16.886;2022-12-07T05:45:44;100186.52;;;2.65;89.82
34073;BME280;20346;52.702;16.886;2022-12-07T05:48:28;100187.78;;;2.64;89.81
34073;BME280;20346;52.702;16.886;2022-12-07T05:51:13;100184.80;;;2.64;89.81
34073;BME280;20346;52.702;16.886;2022-12-07T05:53:58;100187.38;;;2.66;89.84
34073;BME280;20346;52.702;16.886;2022-12-07T05:56:43;100186.08;;;2.64;89.79
34073;BME280;20346;52.702;16.886;2022-12-07T05:59:28;100189.91;;;2.64;89.82
34073;BME280;20346;52.702;16.886;2022-12-07T06:02:15;100182.25;;;2.64;89.81
34073;BME280;20346;52.702;16.886;2022-12-07T06:05:00;100195.44;;;2.64;89.82
34073;BME280;20346;52.702;16.886;2022-12-07T06:07:45;100189.06;;;2.65;89.85
34073;BME280;20346;52.702;16.886;2022-12-07T06:10:30;100187.38;;;2.66;89.85
34073;BME280;20346;52.702;16.886;2022-12-07T06:13:15;100178.88;;;2.67;89.81
34073;BME280;20346;52.702;16.886;2022-12-07T06:16:00;100169.92;;;2.65;89.82
34073;BME280;20346;52.702;16.886;2022-12-07T06:18:45;100163.13;;;2.66;89.82
34073;BME280;20346;52.702;16.886;2022-12-07T06:21:30;100167.38;;;2.65;89.78
34073;BME280;20346;52.702;16.886;2022-12-07T06:24:16;100164.82;;;2.65;89.77
34073;BME280;20346;52.702;16.886;2022-12-07T06:27:01;100167.80;;;2.65;89.77
34073;BME280;20346;52.702;16.886;2022-12-07T06:29:46;100175.87;;;2.64;89.78
34073;BME280;20346;52.702;16.886;2022-12-07T06:32:30;100169.05;;;2.63;89.74
34073;BME280;20346;52.702;16.886;2022-12-07T06:35:15;100173.30;;;2.63;89.76
34073;BME280;20346;52.702;16.886;2022-12-07T06:38:00;100169.46;;;2.61;89.73
34073;BME280;20346;52.702;16.886;2022-12-07T06:40:46;100160.09;;;2.60;89.73
34073;BME280;20346;52.702;16.886;2022-12-07T06:43:31;100166.47;;;2.60;89.72
34073;BME280;20346;52.702;16.886;2022-12-07T06:46:16;100166.07;;;2.59;89.71
34073;BME280;20346;52.702;16.886;2022-12-07T06:49:02;100167.75;;;2.60;89.75
34073;BME280;20346;52.702;16.886;2022-12-07T06:51:47;100166.05;;;2.61;89.75
34073;BME280;20346;52.702;16.886;2022-12-07T06:54:32;100166.06;;;2.62;89.78
34073;BME280;20346;52.702;16.886;2022-12-07T06:57:17;100172.03;;;2.63;89.76
34073;BME280;20346;52.702;16.886;2022-12-07T07:00:03;100160.11;;;2.62;89.72
34073;BME280;20346;52.702;16.886;2022-12-07T07:02:48;100163.95;;;2.63;89.79
34073;BME280;20346;52.702;16.886;2022-12-07T07:05:33;100158.42;;;2.64;89.76
34073;BME280;20346;52.702;16.886;2022-12-07T07:08:18;100157.16;;;2.65;89.75
34073;BME280;20346;52.702;16.886;2022-12-07T07:11:04;100155.89;;;2.65;89.77
34073;BME280;20346;52.702;16.886;2022-12-07T07:13:49;100157.59;;;2.66;89.76
34073;BME280;20346;52.702;16.886;2022-12-07T07:16:34;100155.47;;;2.66;89.71
34073;BME280;20346;52.702;16.886;2022-12-07T07:19:19;100151.63;;;2.66;89.75
34073;BME280;20346;52.702;16.886;2022-12-07T07:22:04;100145.67;;;2.65;89.73
34073;BME280;20346;52.702;16.886;2022-12-07T07:24:49;100150.77;;;2.64;89.71
34073;BME280;20346;52.702;16.886;2022-12-07T07:27:34;100140.98;;;2.63;89.70
34073;BME280;20346;52.702;16.886;2022-12-07T07:30:19;100139.70;;;2.63;89.75
34073;BME280;20346;52.702;16.886;2022-12-07T07:33:04;100136.73;;;2.64;89.72
34073;BME280;20346;52.702;16.886;2022-12-07T07:35:49;100135.86;;;2.62;89.70
34073;BME280;20346;52.702;16.886;2022-12-07T07:38:34;100138.86;;;2.60;89.65
34073;BME280;20346;52.702;16.886;2022-12-07T07:41:19;100136.71;;;2.58;89.66
34073;BME280;20346;52.702;16.886;2022-12-07T07:44:04;100131.16;;;2.55;89.64
34073;BME280;20346;52.702;16.886;2022-12-07T07:46:49;100134.56;;;2.56;89.67
34073;BME280;20346;52.702;16.886;2022-12-07T07:49:34;100138.83;;;2.57;89.71
34073;BME280;20346;52.702;16.886;2022-12-07T07:52:19;100136.29;;;2.58;89.68
34073;BME280;20346;52.702;16.886;2022-12-07T07:55:05;100134.59;;;2.59;89.67
34073;BME280;20346;52.702;16.886;2022-12-07T07:57:53;100129.05;;;2.61;89.69
34073;BME280;20346;52.702;16.886;2022-12-07T08:00:38;100129.08;;;2.64;89.69
34073;BME280;20346;52.702;16.886;2022-12-07T08:03:23;100126.14;;;2.69;89.69
34073;BME280;20346;52.702;16.886;2022-12-07T08:06:07;100122.34;;;2.74;89.71
34073;BME280;20346;52.702;16.886;2022-12-07T08:08:52;100121.53;;;2.78;89.71
34073;BME280;20346;52.702;16.886;2022-12-07T08:11:37;100123.25;;;2.80;89.68
34073;BME280;20346;52.702;16.886;2022-12-07T08:14:22;100127.92;;;2.79;89.62
34073;BME280;20346;52.702;16.886;2022-12-07T08:17:08;100116.43;;;2.79;89.62
34073;BME280;20346;52.702;16.886;2022-12-07T08:19:52;100124.08;;;2.78;89.60
34073;BME280;20346;52.702;16.886;2022-12-07T08:22:38;100115.98;;;2.77;89.60
34073;BME280;20346;52.702;16.886;2022-12-07T08:25:22;100113.44;;;2.77;89.60
34073;BME280;20346;52.702;16.886;2022-12-07T08:28:07;100115.56;;;2.77;89.65
34073;BME280;20346;52.702;16.886;2022-12-07T08:30:52;100113.02;;;2.79;89.67
34073;BME280;20346;52.702;16.886;2022-12-07T08:33:47;100118.98;;;2.79;89.63
34073;BME280;20346;52.702;16.886;2022-12-07T08:36:32;100106.23;;;2.81;89.65
34073;BME280;20346;52.702;16.886;2022-12-07T08:39:17;100110.06;;;2.81;89.63
34073;BME280;20346;52.702;16.886;2022-12-07T08:42:02;100110.06;;;2.81;89.63
34073;BME280;20346;52.702;16.886;2022-12-07T08:44:47;100104.52;;;2.80;89.63
34073;BME280;20346;52.702;16.886;2022-12-07T08:47:33;100104.95;;;2.81;89.60
34073;BME280;20346;52.702;16.886;2022-12-07T08:50:19;100102.83;;;2.80;89.56
34073;BME280;20346;52.702;16.886;2022-12-07T08:53:05;100102.38;;;2.78;89.51
34073;BME280;20346;52.702;16.886;2022-12-07T08:55:51;100104.50;;;2.77;89.56
34073;BME280;20346;52.702;16.886;2022-12-07T08:58:37;100094.27;;;2.74;89.49
34073;BME280;20346;52.702;16.886;2022-12-07T09:01:23;100094.23;;;2.69;89.44
34073;BME280;20346;52.702;16.886;2022-12-07T09:04:07;100091.23;;;2.66;89.46
34073;BME280;20346;52.702;16.886;2022-12-07T09:06:54;100091.64;;;2.64;89.44
34073;BME280;20346;52.702;16.886;2022-12-07T09:09:39;100086.09;;;2.62;89.41
34073;BME280;20346;52.702;16.886;2022-12-07T09:12:23;100082.70;;;2.58;89.37
34073;BME280;20346;52.702;16.886;2022-12-07T09:15:08;100079.28;;;2.56;89.42
34073;BME280;20346;52.702;16.886;2022-12-07T09:17:54;100080.11;;;2.54;89.41
34073;BME280;20346;52.702;16.886;2022-12-07T09:20:39;100079.66;;;2.51;89.41
34073;BME280;20346;52.702;16.886;2022-12-07T09:23:24;100080.08;;;2.51;89.40
34073;BME280;20346;52.702;16.886;2022-12-07T09:26:10;100077.92;;;2.47;89.36
34073;BME280;20346;52.702;16.886;2022-12-07T09:28:54;100073.23;;;2.45;89.40
34073;BME280;20346;52.702;16.886;2022-12-07T09:31:40;100072.36;;;2.43;89.35
34073;BME280;20346;52.702;16.886;2022-12-07T09:34:25;100071.91;;;2.41;89.34
34073;BME280;20346;52.702;16.886;2022-12-07T09:37:10;100065.52;;;2.38;89.31
34073;BME280;20346;52.702;16.886;2022-12-07T09:39:55;100057.82;;;2.33;89.31
34073;BME280;20346;52.702;16.886;2022-12-07T09:42:47;100056.11;;;2.32;89.37
34073;BME280;20346;52.702;16.886;2022-12-07T09:45:35;100050.59;;;2.32;89.40
34073;BME280;20346;52.702;16.886;2022-12-07T09:48:24;100042.94;;;2.32;89.39
34073;BME280;20346;52.702;16.886;2022-12-07T09:51:19;100040.37;;;2.31;89.37
34073;BME280;20346;52.702;16.886;2022-12-07T09:54:09;100039.11;;;2.32;89.40
34073;BME280;20346;52.702;16.886;2022-12-07T09:56:59;100037.83;;;2.32;89.36
34073;BME280;20346;52.702;16.886;2022-12-07T09:59:44;100036.13;;;2.31;89.37
34073;BME280;20346;52.702;16.886;2022-12-07T10:05:30;100022.97;;;2.35;89.44
34073;BME280;20346;52.702;16.886;2022-12-07T10:08:15;100022.56;;;2.37;89.40
34073;BME280;20346;52.702;16.886;2022-12-07T10:11:02;100023.83;;;2.36;89.36
34073;BME280;20346;52.702;16.886;2022-12-07T10:13:50;100016.61;;;2.37;89.38
34073;BME280;20346;52.702;16.886;2022-12-07T10:16:41;100018.73;;;2.37;89.39
34073;BME280;20346;52.702;16.886;2022-12-07T10:19:29;100009.80;;;2.36;89.33
34073;BME280;20346;52.702;16.886;2022-12-07T10:22:16;100003.41;;;2.34;89.32
34073;BME280;20346;52.702;16.886;2022-12-07T10:25:15;100003.83;;;2.33;89.34
34073;BME280;20346;52.702;16.886;2022-12-07T10:31:02;99999.18;;;2.38;89.39
34073;BME280;20346;52.702;16.886;2022-12-07T10:36:38;99991.98;;;2.42;89.43
34073;BME280;20346;52.702;16.886;2022-12-07T10:39:23;99986.47;;;2.44;89.45
34073;BME280;20346;52.702;16.886;2022-12-07T10:42:17;99986.90;;;2.45;89.42
34073;BME280;20346;52.702;16.886;2022-12-07T10:48:11;99979.25;;;2.46;89.40
34073;BME280;20346;52.702;16.886;2022-12-07T10:51:16;99977.58;;;2.50;89.45
34073;BME280;20346;52.702;16.886;2022-12-07T10:54:51;99979.70;;;2.50;89.42
34073;BME280;20346;52.702;16.886;2022-12-07T11:07:13;99961.81;;;2.46;89.34
34073;BME280;20346;52.702;16.886;2022-12-07T11:16:27;99949.88;;;2.40;89.34
34073;BME280;20346;52.702;16.886;2022-12-07T11:22:29;99946.45;;;2.37;89.33
34073;BME280;20346;52.702;16.886;2022-12-07T11:25:29;99943.45;;;2.34;89.35
34073;BME280;20346;52.702;16.886;2022-12-07T11:38:16;99932.00;;;2.37;89.41
34073;BME280;20346;52.702;16.886;2022-12-07T11:41:05;99933.70;;;2.38;89.41
34073;BME280;20346;52.702;16.886;2022-12-07T11:56:26;99920.95;;;2.40;89.35
34073;BME280;20346;52.702;16.886;2022-12-07T11:59:17;99925.64;;;2.42;89.40
34073;BME280;20346;52.702;16.886;2022-12-07T12:05:18;99920.56;;;2.45;89.39
34073;BME280;20346;52.702;16.886;2022-12-07T12:08:14;99924.41;;;2.49;89.43
34073;BME280;20346;52.702;16.886;2022-12-07T12:11:10;99914.22;;;2.51;89.45
34073;BME280;20346;52.702;16.886;2022-12-07T12:26:25;99906.56;;;2.51;89.39
34073;BME280;20346;52.702;16.886;2022-12-07T12:29:33;99909.13;;;2.54;89.41
34073;BME280;20346;52.702;16.886;2022-12-07T12:32:42;99906.16;;;2.54;89.39
34073;BME280;20346;52.702;16.886;2022-12-07T12:35:30;99903.61;;;2.56;89.39
34073;BME280;20346;52.702;16.886;2022-12-07T12:47:42;99893.41;;;2.56;89.38
34073;BME280;20346;52.702;16.886;2022-12-07T12:50:38;99892.56;;;2.58;89.45
34073;BME280;20346;52.702;16.886;2022-12-07T12:53:24;99893.82;;;2.61;89.44
34073;BME280;20346;52.702;16.886;2022-12-07T12:56:17;99893.83;;;2.63;89.46
34073;BME280;20346;52.702;16.886;2022-12-07T12:59:32;99893.82;;;2.61;89.38
34073;BME280;20346;52.702;16.886;2022-12-07T13:02:32;99900.63;;;2.62;89.42
34073;BME280;20346;52.702;16.886;2022-12-07T13:05:22;99897.65;;;2.61;89.37
34073;BME280;20346;52.702;16.886;2022-12-07T13:08:22;99899.36;;;2.62;89.42
34073;BME280;20346;52.702;16.886;2022-12-07T13:11:35;99901.05;;;2.60;89.38
34073;BME280;20346;52.702;16.886;2022-12-07T13:14:42;99901.50;;;2.60;89.34
34073;BME280;20346;52.702;16.886;2022-12-07T13:20:48;99903.17;;;2.61;89.34
34073;BME280;20346;52.702;16.886;2022-12-07T13:26:36;99912.11;;;2.55;89.30
34073;BME280;20346;52.702;16.886;2022-12-07T13:29:21;99925.30;;;2.54;89.32
34073;BME280;20346;52.702;16.886;2022-12-07T13:32:21;99922.72;;;2.51;89.32
34073;BME280;20346;52.702;16.886;2022-12-07T13:34:57;99936.77;;;2.53;89.34
34073;BME280;20346;52.702;16.886;2022-12-07T13:37:42;99943.14;;;2.53;89.35
34073;BME280;20346;52.702;16.886;2022-12-07T13:40:28;99943.57;;;2.52;89.30
34073;BME280;20346;52.702;16.886;2022-12-07T13:43:15;99943.14;;;2.53;89.31
34073;BME280;20346;52.702;16.886;2022-12-07T13:46:01;99938.03;;;2.51;89.27
34073;BME280;20346;52.702;16.886;2022-12-07T13:48:48;99932.49;;;2.49;89.21
34073;BME280;20346;52.702;16.886;2022-12-07T13:51:36;99932.06;;;2.49;89.25
34073;BME280;20346;52.702;16.886;2022-12-07T13:54:22;99942.70;;;2.49;89.24
34073;BME280;20346;52.702;16.886;2022-12-07T13:57:07;99941.43;;;2.50;89.29
34073;BME280;20346;52.702;16.886;2022-12-07T13:59:52;99949.51;;;2.50;89.26
34073;BME280;20346;52.702;16.886;2022-12-07T14:02:53;99939.30;;;2.48;89.20
34073;BME280;20346;52.702;16.886;2022-12-07T14:05:47;99945.66;;;2.47;89.19
34073;BME280;20346;52.702;16.886;2022-12-07T14:08:34;99949.89;;;2.43;89.11
34073;BME280;20346;52.702;16.886;2022-12-07T14:11:20;99951.14;;;2.39;89.13
34073;BME280;20346;52.702;16.886;2022-12-07T14:14:05;99954.09;;;2.35;89.15
34073;BME280;20346;52.702;16.886;2022-12-07T14:17:08;99960.03;;;2.34;89.17
34073;BME280;20346;52.702;16.886;2022-12-07T14:20:00;99959.61;;;2.35;89.21
34073;BME280;20346;52.702;16.886;2022-12-07T14:22:53;99963.86;;;2.34;89.25
34073;BME280;20346;52.702;16.886;2022-12-07T14:25:47;99961.33;;;2.37;89.22
34073;BME280;20346;52.702;16.886;2022-12-07T14:28:35;99964.27;;;2.32;89.09
34073;BME280;20346;52.702;16.886;2022-12-07T14:31:23;99965.12;;;2.31;89.16
34073;BME280;20346;52.702;16.886;2022-12-07T14:34:13;99971.08;;;2.31;89.20
34073;BME280;20346;52.702;16.886;2022-12-07T14:36:58;99969.38;;;2.32;89.16
34073;BME280;20346;52.702;16.886;2022-12-07T14:39:43;99967.66;;;2.29;89.10
34073;BME280;20346;52.702;16.886;2022-12-07T14:42:30;99969.75;;;2.25;89.06
34073;BME280;20346;52.702;16.886;2022-12-07T14:45:17;99978.23;;;2.23;89.06
34073;BME280;20346;52.702;16.886;2022-12-07T14:48:10;99980.35;;;2.22;89.11
34073;BME280;20346;52.702;16.886;2022-12-07T14:50:56;99986.31;;;2.22;89.13
34073;BME280;20346;52.702;16.886;2022-12-07T14:53:48;99981.20;;;2.22;89.13
34073;BME280;20346;52.702;16.886;2022-12-07T14:56:33;99976.12;;;2.24;89.15
34073;BME280;20346;52.702;16.886;2022-12-07T14:59:18;99979.08;;;2.22;89.05
34073;BME280;20346;52.702;16.886;2022-12-07T15:02:04;99983.31;;;2.20;89.08
34073;BME280;20346;52.702;16.886;2022-12-07T15:04:50;99981.16;;;2.16;89.00
34073;BME280;20346;52.702;16.886;2022-12-07T15:07:35;99983.70;;;2.15;89.05
34073;BME280;20346;52.702;16.886;2022-12-07T15:10:23;99979.44;;;2.14;89.04
34073;BME280;20346;52.702;16.886;2022-12-07T15:13:16;99978.97;;;2.08;88.93
34073;BME280;20346;52.702;16.886;2022-12-07T15:16:20;99986.19;;;2.04;88.91
34073;BME280;20346;52.702;16.886;2022-12-07T15:19:06;99979.33;;;1.97;88.86
34073;BME280;20346;52.702;16.886;2022-12-07T15:21:52;99970.79;;;1.92;88.86
34073;BME280;20346;52.702;16.886;2022-12-07T15:24:37;99988.16;;;1.86;88.81
34073;BME280;20346;52.702;16.886;2022-12-07T15:27:22;99987.25;;;1.80;88.80
34073;BME280;20346;52.702;16.886;2022-12-07T15:30:08;99986.77;;;1.74;88.78
34073;BME280;20346;52.702;16.886;2022-12-07T15:32:53;99985.86;;;1.68;88.73
34073;BME280;20346;52.702;16.886;2022-12-07T15:35:44;99987.45;;;1.58;88.66
34073;BME280;20346;52.702;16.886;2022-12-07T15:38:26;99990.84;;;1.54;88.68
34073;BME280;20346;52.702;16.886;2022-12-07T15:41:13;99977.59;;;1.45;88.64
34073;BME280;20346;52.702;16.886;2022-12-07T15:43:58;99984.73;;;1.38;88.64
34073;BME280;20346;52.702;16.886;2022-12-07T15:47:02;99987.63;;;1.31;88.64
34073;BME280;20346;52.702;16.886;2022-12-07T15:49:48;99988.84;;;1.27;88.60
34073;BME280;20346;52.702;16.886;2022-12-07T15:52:33;99990.06;;;1.22;88.67
34073;BME280;20346;52.702;16.886;2022-12-07T15:55:19;99989.61;;;1.20;88.61
34073;BME280;20346;52.702;16.886;2022-12-07T15:58:04;99987.84;;;1.14;88.61
34073;BME280;20346;52.702;16.886;2022-12-07T16:00:49;99991.59;;;1.08;88.53
34073;BME280;20346;52.702;16.886;2022-12-07T16:03:34;99992.84;;;1.04;88.54
34073;BME280;20346;52.702;16.886;2022-12-07T16:06:19;99999.58;;;1.00;88.56
34073;BME280;20346;52.702;16.886;2022-12-07T16:09:04;99998.27;;;0.97;88.57
34073;BME280;20346;52.702;16.886;2022-12-07T16:11:49;100003.32;;;0.94;88.58
34073;BME280;20346;52.702;16.886;2022-12-07T16:14:34;99995.23;;;0.91;88.58
34073;BME280;20346;52.702;16.886;2022-12-07T16:17:19;99999.44;;;0.89;88.59
34073;BME280;20346;52.702;16.886;2022-12-07T16:20:05;100010.44;;;0.87;88.59
34073;BME280;20346;52.702;16.886;2022-12-07T16:22:52;99998.94;;;0.84;88.57
34073;BME280;20346;52.702;16.886;2022-12-07T16:25:37;100003.16;;;0.82;88.58
34073;BME280;20346;52.702;16.886;2022-12-07T16:28:22;100001.03;;;0.81;88.61